sensor_id;sensor_type;location;lat;lon;timestamp;P1;durP1;ratioP1;P2;durP2;ratioP2
8279;SDS011;8335;42.646;23.380;2022-12-28T00:01:58;11.23;;;7.43;;
8279;SDS011;8335;42.646;23.380;2022-12-28T00:04:24;11.37;;;7.10;;
8279;SDS011;8335;42.646;23.380;2022-12-28T00:06:51;10.17;;;7.97;;
8279;SDS011;8335;42.646;23.380;2022-12-28T00:09:18;10.60;;;7.50;;
8279;SDS011;8335;42.646;23.380;2022-12-28T00:11:45;9.67;;;7.40;;
8279;SDS011;8335;42.646;23.380;2022-12-28T00:14:11;13.97;;;8.27;;
8279;SDS011;8335;42.646;23.380;2022-12-28T00:16:39;11.83;;;7.77;;
8279;SDS011;8335;42.646;23.380;2022-12-28T00:19:10;13.30;;;8.87;;
8279;SDS011;8335;42.646;23.380;2022-12-28T00:21:38;11.33;;;7.53;;
8279;SDS011;8335;42.646;23.380;2022-12-28T00:24:06;10.50;;;8.00;;
8279;SDS011;8335;42.646;23.380;2022-12-28T00:26:33;11.00;;;7.97;;
8279;SDS011;8335;42.646;23.380;2022-12-28T00:29:01;10.50;;;7.77;;
8279;SDS011;8335;42.646;23.380;2022-12-28T00:31:28;12.80;;;7.87;;
8279;SDS011;8335;42.646;23.380;2022-12-28T00:33:55;13.43;;;7.93;;
8279;SDS011;8335;42.646;23.380;2022-12-28T00:36:23;11.37;;;7.67;;
8279;SDS011;8335;42.646;23.380;2022-12-28T00:38:50;11.00;;;7.50;;
8279;SDS011;8335;42.646;23.380;2022-12-28T00:41:17;10.60;;;7.23;;
8279;SDS011;8335;42.646;23.380;2022-12-28T00:43:44;9.50;;;7.20;;
8279;SDS011;8335;42.646;23.380;2022-12-28T00:46:11;11.43;;;8.10;;
8279;SDS011;8335;42.646;23.380;2022-12-28T00:48:38;10.60;;;7.53;;
8279;SDS011;8335;42.646;23.380;2022-12-28T00:51:06;10.90;;;8.03;;
8279;SDS011;8335;42.646;23.380;2022-12-28T00:53:35;10.87;;;7.80;;
8279;SDS011;8335;42.646;23.380;2022-12-28T00:56:05;11.10;;;8.13;;
8279;SDS011;8335;42.646;23.380;2022-12-28T00:58:33;11.07;;;8.23;;
8279;SDS011;8335;42.646;23.380;2022-12-28T01:01:01;10.93;;;7.80;;
8279;SDS011;8335;42.646;23.380;2022-12-28T01:03:28;10.57;;;8.07;;
8279;SDS011;8335;42.646;23.380;2022-12-28T01:05:54;11.57;;;8.40;;
8279;SDS011;8335;42.646;23.380;2022-12-28T01:08:21;11.73;;;8.40;;
8279;SDS011;8335;42.646;23.380;2022-12-28T01:10:49;11.53;;;8.90;;
8279;SDS011;8335;42.646;23.380;2022-12-28T01:13:16;12.33;;;8.70;;
8279;SDS011;8335;42.646;23.380;2022-12-28T01:15:43;11.50;;;8.50;;
8279;SDS011;8335;42.646;23.380;2022-12-28T01:18:10;14.03;;;9.53;;
8279;SDS011;8335;42.646;23.380;2022-12-28T01:20:37;14.13;;;10.60;;
8279;SDS011;8335;42.646;23.380;2022-12-28T01:23:04;12.40;;;9.57;;
8279;SDS011;8335;42.646;23.380;2022-12-28T01:25:31;13.37;;;9.43;;
8279;SDS011;8335;42.646;23.380;2022-12-28T01:27:59;15.30;;;10.97;;
8279;SDS011;8335;42.646;23.380;2022-12-28T01:30:26;16.40;;;10.57;;
8279;SDS011;8335;42.646;23.380;2022-12-28T01:32:54;14.97;;;10.37;;
8279;SDS011;8335;42.646;23.380;2022-12-28T01:35:23;13.60;;;10.33;;
8279;SDS011;8335;42.646;23.380;2022-12-28T01:37:50;15.43;;;10.57;;
8279;SDS011;8335;42.646;23.380;2022-12-28T01:40:17;14.47;;;10.80;;
8279;SDS011;8335;42.646;23.380;2022-12-28T01:42:44;15.63;;;11.17;;
8279;SDS011;8335;42.646;23.380;2022-12-28T01:45:16;14.87;;;11.27;;
8279;SDS011;8335;42.646;23.380;2022-12-28T01:47:44;15.67;;;10.40;;
8279;SDS011;8335;42.646;23.380;2022-12-28T01:50:13;14.90;;;10.93;;
8279;SDS011;8335;42.646;23.380;2022-12-28T01:52:45;15.50;;;11.50;;
8279;SDS011;8335;42.646;23.380;2022-12-28T01:55:17;17.47;;;11.77;;
8279;SDS011;8335;42.646;23.380;2022-12-28T01:57:47;15.23;;;10.73;;
8279;SDS011;8335;42.646;23.380;2022-12-28T02:00:20;16.80;;;12.13;;
8279;SDS011;8335;42.646;23.380;2022-12-28T02:02:48;17.87;;;12.80;;
8279;SDS011;8335;42.646;23.380;2022-12-28T02:05:18;18.30;;;12.00;;
8279;SDS011;8335;42.646;23.380;2022-12-28T02:07:49;16.10;;;11.53;;
8279;SDS011;8335;42.646;23.380;2022-12-28T02:10:19;15.50;;;11.90;;
8279;SDS011;8335;42.646;23.380;2022-12-28T02:12:47;16.10;;;11.87;;
8279;SDS011;8335;42.646;23.380;2022-12-28T02:15:14;17.90;;;11.83;;
8279;SDS011;8335;42.646;23.380;2022-12-28T02:17:42;18.27;;;12.50;;
8279;SDS011;8335;42.646;23.380;2022-12-28T02:20:09;18.43;;;11.97;;
8279;SDS011;8335;42.646;23.380;2022-12-28T02:22:46;17.40;;;11.83;;
8279;SDS011;8335;42.646;23.380;2022-12-28T02:28:47;19.37;;;13.17;;
8279;SDS011;8335;42.646;23.380;2022-12-28T02:31:34;19.13;;;12.70;;
8279;SDS011;8335;42.646;23.380;2022-12-28T02:34:09;23.13;;;13.67;;
8279;SDS011;8335;42.646;23.380;2022-12-28T02:36:45;19.87;;;12.03;;
8279;SDS011;8335;42.646;23.380;2022-12-28T02:39:17;19.40;;;13.17;;
8279;SDS011;8335;42.646;23.380;2022-12-28T02:41:48;17.30;;;12.00;;
8279;SDS011;8335;42.646;23.380;2022-12-28T02:44:18;19.17;;;13.47;;
8279;SDS011;8335;42.646;23.380;2022-12-28T02:46:59;19.23;;;12.93;;
8279;SDS011;8335;42.646;23.380;2022-12-28T02:49:43;19.27;;;13.23;;
8279;SDS011;8335;42.646;23.380;2022-12-28T02:52:29;20.73;;;12.97;;
8279;SDS011;8335;42.646;23.380;2022-12-28T02:55:13;18.23;;;12.93;;
8279;SDS011;8335;42.646;23.380;2022-12-28T02:58:20;18.83;;;13.27;;
8279;SDS011;8335;42.646;23.380;2022-12-28T03:01:01;17.63;;;12.23;;
8279;SDS011;8335;42.646;23.380;2022-12-28T03:03:44;17.27;;;12.00;;
8279;SDS011;8335;42.646;23.380;2022-12-28T03:06:29;19.47;;;11.80;;
8279;SDS011;8335;42.646;23.380;2022-12-28T03:09:25;16.13;;;11.00;;
8279;SDS011;8335;42.646;23.380;2022-12-28T03:12:00;14.63;;;10.47;;
8279;SDS011;8335;42.646;23.380;2022-12-28T03:14:33;15.90;;;10.93;;
8279;SDS011;8335;42.646;23.380;2022-12-28T03:17:05;16.60;;;11.23;;
8279;SDS011;8335;42.646;23.380;2022-12-28T03:19:51;15.63;;;10.63;;
8279;SDS011;8335;42.646;23.380;2022-12-28T03:22:38;15.27;;;11.07;;
8279;SDS011;8335;42.646;23.380;2022-12-28T03:25:25;17.17;;;11.70;;
8279;SDS011;8335;42.646;23.380;2022-12-28T03:28:13;15.53;;;10.83;;
8279;SDS011;8335;42.646;23.380;2022-12-28T03:31:02;16.60;;;10.80;;
8279;SDS011;8335;42.646;23.380;2022-12-28T03:33:35;16.70;;;10.63;;
8279;SDS011;8335;42.646;23.380;2022-12-28T03:36:07;16.20;;;11.73;;
8279;SDS011;8335;42.646;23.380;2022-12-28T03:38:38;14.13;;;10.43;;
8279;SDS011;8335;42.646;23.380;2022-12-28T03:41:11;16.80;;;11.60;;
8279;SDS011;8335;42.646;23.380;2022-12-28T03:43:43;16.07;;;10.90;;
8279;SDS011;8335;42.646;23.380;2022-12-28T03:46:16;15.33;;;10.77;;
8279;SDS011;8335;42.646;23.380;2022-12-28T03:48:47;18.20;;;11.27;;
8279;SDS011;8335;42.646;23.380;2022-12-28T03:51:16;18.10;;;11.33;;
8279;SDS011;8335;42.646;23.380;2022-12-28T03:53:46;18.40;;;10.47;;
8279;SDS011;8335;42.646;23.380;2022-12-28T03:56:14;13.80;;;9.90;;
8279;SDS011;8335;42.646;23.380;2022-12-28T03:58:42;15.23;;;10.30;;
8279;SDS011;8335;42.646;23.380;2022-12-28T04:01:09;12.57;;;9.33;;
8279;SDS011;8335;42.646;23.380;2022-12-28T04:03:36;16.00;;;9.80;;
8279;SDS011;8335;42.646;23.380;2022-12-28T04:06:05;16.17;;;10.30;;
8279;SDS011;8335;42.646;23.380;2022-12-28T04:08:33;14.33;;;9.93;;
8279;SDS011;8335;42.646;23.380;2022-12-28T04:11:00;14.17;;;8.93;;
8279;SDS011;8335;42.646;23.380;2022-12-28T04:13:27;15.30;;;9.80;;
8279;SDS011;8335;42.646;23.380;2022-12-28T04:15:56;14.87;;;9.30;;
8279;SDS011;8335;42.646;23.380;2022-12-28T04:18:24;13.87;;;8.63;;
8279;SDS011;8335;42.646;23.380;2022-12-28T04:20:51;14.30;;;8.83;;
8279;SDS011;8335;42.646;23.380;2022-12-28T04:23:19;14.73;;;8.83;;
8279;SDS011;8335;42.646;23.380;2022-12-28T04:25:54;13.00;;;9.00;;
8279;SDS011;8335;42.646;23.380;2022-12-28T04:28:23;13.20;;;9.00;;
8279;SDS011;8335;42.646;23.380;2022-12-28T04:30:50;13.73;;;8.70;;
8279;SDS011;8335;42.646;23.380;2022-12-28T04:33:17;13.73;;;9.10;;
8279;SDS011;8335;42.646;23.380;2022-12-28T04:35:43;14.30;;;8.47;;
8279;SDS011;8335;42.646;23.380;2022-12-28T04:38:10;13.77;;;9.00;;
8279;SDS011;8335;42.646;23.380;2022-12-28T04:40:38;12.77;;;7.87;;
8279;SDS011;8335;42.646;23.380;2022-12-28T04:43:05;14.67;;;8.37;;
8279;SDS011;8335;42.646;23.380;2022-12-28T04:45:32;11.93;;;7.93;;
8279;SDS011;8335;42.646;23.380;2022-12-28T04:47:59;12.17;;;7.93;;
8279;SDS011;8335;42.646;23.380;2022-12-28T04:50:26;12.47;;;7.87;;
8279;SDS011;8335;42.646;23.380;2022-12-28T04:52:53;11.80;;;7.77;;
8279;SDS011;8335;42.646;23.380;2022-12-28T04:55:20;10.03;;;7.60;;
8279;SDS011;8335;42.646;23.380;2022-12-28T04:57:48;11.23;;;7.60;;
8279;SDS011;8335;42.646;23.380;2022-12-28T05:00:15;10.10;;;7.17;;
8279;SDS011;8335;42.646;23.380;2022-12-28T05:02:42;8.60;;;6.80;;
8279;SDS011;8335;42.646;23.380;2022-12-28T05:05:09;8.07;;;6.47;;
8279;SDS011;8335;42.646;23.380;2022-12-28T05:07:35;10.23;;;7.03;;
8279;SDS011;8335;42.646;23.380;2022-12-28T05:10:02;8.57;;;6.30;;
8279;SDS011;8335;42.646;23.380;2022-12-28T05:12:29;8.97;;;6.33;;
8279;SDS011;8335;42.646;23.380;2022-12-28T05:14:58;10.63;;;6.93;;
8279;SDS011;8335;42.646;23.380;2022-12-28T05:17:24;9.83;;;6.33;;
8279;SDS011;8335;42.646;23.380;2022-12-28T05:19:51;9.17;;;6.27;;
8279;SDS011;8335;42.646;23.380;2022-12-28T05:22:18;9.23;;;5.83;;
8279;SDS011;8335;42.646;23.380;2022-12-28T05:24:45;8.80;;;5.97;;
8279;SDS011;8335;42.646;23.380;2022-12-28T05:27:11;9.67;;;6.40;;
8279;SDS011;8335;42.646;23.380;2022-12-28T05:29:38;10.70;;;6.37;;
8279;SDS011;8335;42.646;23.380;2022-12-28T05:32:06;8.80;;;6.87;;
8279;SDS011;8335;42.646;23.380;2022-12-28T05:34:33;9.43;;;6.40;;
8279;SDS011;8335;42.646;23.380;2022-12-28T05:37:00;9.77;;;7.23;;
8279;SDS011;8335;42.646;23.380;2022-12-28T05:39:26;11.43;;;6.83;;
8279;SDS011;8335;42.646;23.380;2022-12-28T05:41:53;12.80;;;6.97;;
8279;SDS011;8335;42.646;23.380;2022-12-28T05:44:24;14.50;;;7.07;;
8279;SDS011;8335;42.646;23.380;2022-12-28T05:46:51;9.93;;;6.87;;
8279;SDS011;8335;42.646;23.380;2022-12-28T05:49:19;9.43;;;6.47;;
8279;SDS011;8335;42.646;23.380;2022-12-28T05:51:47;9.93;;;6.63;;
8279;SDS011;8335;42.646;23.380;2022-12-28T05:54:14;10.87;;;6.63;;
8279;SDS011;8335;42.646;23.380;2022-12-28T05:56:41;8.90;;;6.10;;
8279;SDS011;8335;42.646;23.380;2022-12-28T05:59:07;10.97;;;6.63;;
8279;SDS011;8335;42.646;23.380;2022-12-28T06:01:35;9.53;;;5.77;;
8279;SDS011;8335;42.646;23.380;2022-12-28T06:04:03;9.57;;;5.90;;
8279;SDS011;8335;42.646;23.380;2022-12-28T06:06:33;9.93;;;5.67;;
8279;SDS011;8335;42.646;23.380;2022-12-28T06:09:01;10.13;;;6.33;;
8279;SDS011;8335;42.646;23.380;2022-12-28T06:11:28;8.80;;;6.13;;
8279;SDS011;8335;42.646;23.380;2022-12-28T06:13:56;10.57;;;5.80;;
8279;SDS011;8335;42.646;23.380;2022-12-28T06:16:24;7.87;;;5.63;;
8279;SDS011;8335;42.646;23.380;2022-12-28T06:18:52;8.83;;;6.00;;
8279;SDS011;8335;42.646;23.380;2022-12-28T06:21:20;10.43;;;5.90;;
8279;SDS011;8335;42.646;23.380;2022-12-28T06:23:50;9.50;;;6.00;;
8279;SDS011;8335;42.646;23.380;2022-12-28T06:26:19;10.17;;;6.40;;
8279;SDS011;8335;42.646;23.380;2022-12-28T06:28:46;9.37;;;6.20;;
8279;SDS011;8335;42.646;23.380;2022-12-28T06:31:14;8.47;;;6.03;;
8279;SDS011;8335;42.646;23.380;2022-12-28T06:33:43;9.23;;;6.67;;
8279;SDS011;8335;42.646;23.380;2022-12-28T06:36:10;10.67;;;6.00;;
8279;SDS011;8335;42.646;23.380;2022-12-28T06:38:38;8.43;;;5.80;;
8279;SDS011;8335;42.646;23.380;2022-12-28T06:41:07;10.53;;;6.37;;
8279;SDS011;8335;42.646;23.380;2022-12-28T06:43:35;10.47;;;6.63;;
8279;SDS011;8335;42.646;23.380;2022-12-28T06:46:04;12.33;;;6.27;;
8279;SDS011;8335;42.646;23.380;2022-12-28T06:48:31;8.70;;;6.10;;
8279;SDS011;8335;42.646;23.380;2022-12-28T06:51:00;11.07;;;6.67;;
8279;SDS011;8335;42.646;23.380;2022-12-28T06:53:28;10.77;;;6.07;;
8279;SDS011;8335;42.646;23.380;2022-12-28T06:55:57;12.93;;;7.07;;
8279;SDS011;8335;42.646;23.380;2022-12-28T06:58:26;12.07;;;6.30;;
8279;SDS011;8335;42.646;23.380;2022-12-28T07:00:55;19.83;;;8.63;;
8279;SDS011;8335;42.646;23.380;2022-12-28T07:03:22;16.27;;;7.40;;
8279;SDS011;8335;42.646;23.380;2022-12-28T07:05:49;11.57;;;6.53;;
8279;SDS011;8335;42.646;23.380;2022-12-28T07:08:17;10.33;;;6.70;;
8279;SDS011;8335;42.646;23.380;2022-12-28T07:10:43;13.63;;;7.77;;
8279;SDS011;8335;42.646;23.380;2022-12-28T07:13:10;10.83;;;7.13;;
8279;SDS011;8335;42.646;23.380;2022-12-28T07:15:39;15.27;;;7.60;;
8279;SDS011;8335;42.646;23.380;2022-12-28T07:18:05;11.73;;;7.70;;
8279;SDS011;8335;42.646;23.380;2022-12-28T07:20:32;12.57;;;7.27;;
8279;SDS011;8335;42.646;23.380;2022-12-28T07:22:59;13.30;;;7.77;;
8279;SDS011;8335;42.646;23.380;2022-12-28T07:25:26;35.17;;;8.40;;
8279;SDS011;8335;42.646;23.380;2022-12-28T07:27:52;11.60;;;8.20;;
8279;SDS011;8335;42.646;23.380;2022-12-28T07:30:19;17.60;;;8.53;;
8279;SDS011;8335;42.646;23.380;2022-12-28T07:32:47;16.53;;;8.77;;
8279;SDS011;8335;42.646;23.380;2022-12-28T07:35:14;19.10;;;10.37;;
8279;SDS011;8335;42.646;23.380;2022-12-28T07:37:41;14.47;;;8.90;;
8279;SDS011;8335;42.646;23.380;2022-12-28T07:40:08;12.30;;;8.03;;
8279;SDS011;8335;42.646;23.380;2022-12-28T07:42:36;14.20;;;7.70;;
8279;SDS011;8335;42.646;23.380;2022-12-28T07:45:03;12.03;;;7.63;;
8279;SDS011;8335;42.646;23.380;2022-12-28T07:47:33;10.93;;;7.30;;
8279;SDS011;8335;42.646;23.380;2022-12-28T07:50:01;13.17;;;8.67;;
8279;SDS011;8335;42.646;23.380;2022-12-28T07:52:28;12.73;;;8.77;;
8279;SDS011;8335;42.646;23.380;2022-12-28T07:54:55;13.70;;;9.17;;
8279;SDS011;8335;42.646;23.380;2022-12-28T07:57:21;14.03;;;8.87;;
8279;SDS011;8335;42.646;23.380;2022-12-28T07:59:48;14.93;;;8.77;;
8279;SDS011;8335;42.646;23.380;2022-12-28T08:02:15;10.63;;;8.27;;
8279;SDS011;8335;42.646;23.380;2022-12-28T08:04:41;16.07;;;8.70;;
8279;SDS011;8335;42.646;23.380;2022-12-28T08:07:10;12.07;;;8.30;;
8279;SDS011;8335;42.646;23.380;2022-12-28T08:09:36;14.00;;;8.87;;
8279;SDS011;8335;42.646;23.380;2022-12-28T08:12:03;15.53;;;9.20;;
8279;SDS011;8335;42.646;23.380;2022-12-28T08:14:30;13.73;;;8.97;;
8279;SDS011;8335;42.646;23.380;2022-12-28T08:16:57;14.50;;;8.80;;
8279;SDS011;8335;42.646;23.380;2022-12-28T08:19:24;12.37;;;8.43;;
8279;SDS011;8335;42.646;23.380;2022-12-28T08:21:51;13.20;;;9.23;;
8279;SDS011;8335;42.646;23.380;2022-12-28T08:24:19;13.77;;;8.83;;
8279;SDS011;8335;42.646;23.380;2022-12-28T08:26:46;13.70;;;9.60;;
8279;SDS011;8335;42.646;23.380;2022-12-28T08:29:14;16.63;;;9.60;;
8279;SDS011;8335;42.646;23.380;2022-12-28T08:31:43;15.70;;;9.60;;
8279;SDS011;8335;42.646;23.380;2022-12-28T08:34:11;15.90;;;9.53;;
8279;SDS011;8335;42.646;23.380;2022-12-28T08:36:39;17.23;;;9.73;;
8279;SDS011;8335;42.646;23.380;2022-12-28T08:39:07;16.63;;;10.10;;
8279;SDS011;8335;42.646;23.380;2022-12-28T08:41:36;16.10;;;9.70;;
8279;SDS011;8335;42.646;23.380;2022-12-28T08:44:03;15.93;;;9.40;;
8279;SDS011;8335;42.646;23.380;2022-12-28T08:46:31;18.00;;;9.50;;
8279;SDS011;8335;42.646;23.380;2022-12-28T08:48:59;14.13;;;9.33;;
8279;SDS011;8335;42.646;23.380;2022-12-28T08:51:28;15.23;;;9.63;;
8279;SDS011;8335;42.646;23.380;2022-12-28T08:53:57;16.13;;;9.67;;
8279;SDS011;8335;42.646;23.380;2022-12-28T08:56:25;13.53;;;9.17;;
8279;SDS011;8335;42.646;23.380;2022-12-28T08:58:54;14.40;;;9.23;;
8279;SDS011;8335;42.646;23.380;2022-12-28T09:01:22;18.37;;;10.20;;
8279;SDS011;8335;42.646;23.380;2022-12-28T09:03:51;18.20;;;9.93;;
8279;SDS011;8335;42.646;23.380;2022-12-28T09:06:19;16.23;;;11.10;;
8279;SDS011;8335;42.646;23.380;2022-12-28T09:08:47;14.37;;;9.90;;
8279;SDS011;8335;42.646;23.380;2022-12-28T09:11:15;26.60;;;13.73;;
8279;SDS011;8335;42.646;23.380;2022-12-28T09:13:42;29.63;;;12.40;;
8279;SDS011;8335;42.646;23.380;2022-12-28T09:16:11;18.57;;;10.30;;
8279;SDS011;8335;42.646;23.380;2022-12-28T09:18:40;16.73;;;10.87;;
8279;SDS011;8335;42.646;23.380;2022-12-28T09:21:08;19.63;;;10.67;;
8279;SDS011;8335;42.646;23.380;2022-12-28T09:23:37;17.83;;;10.53;;
8279;SDS011;8335;42.646;23.380;2022-12-28T09:26:04;18.10;;;11.07;;
8279;SDS011;8335;42.646;23.380;2022-12-28T09:28:31;17.70;;;10.33;;
8279;SDS011;8335;42.646;23.380;2022-12-28T09:31:00;14.00;;;9.70;;
8279;SDS011;8335;42.646;23.380;2022-12-28T09:33:29;17.20;;;11.00;;
8279;SDS011;8335;42.646;23.380;2022-12-28T09:36:19;18.23;;;11.07;;
8279;SDS011;8335;42.646;23.380;2022-12-28T09:38:46;15.87;;;10.73;;
8279;SDS011;8335;42.646;23.380;2022-12-28T09:41:15;15.20;;;9.80;;
8279;SDS011;8335;42.646;23.380;2022-12-28T09:43:48;18.70;;;10.13;;
8279;SDS011;8335;42.646;23.380;2022-12-28T09:46:19;13.00;;;9.23;;
8279;SDS011;8335;42.646;23.380;2022-12-28T09:48:53;12.83;;;8.40;;
8279;SDS011;8335;42.646;23.380;2022-12-28T09:51:25;12.07;;;8.33;;
8279;SDS011;8335;42.646;23.380;2022-12-28T09:53:56;13.77;;;8.30;;
8279;SDS011;8335;42.646;23.380;2022-12-28T09:56:25;12.27;;;8.37;;
8279;SDS011;8335;42.646;23.380;2022-12-28T09:58:55;11.63;;;8.33;;
8279;SDS011;8335;42.646;23.380;2022-12-28T10:01:22;12.23;;;8.13;;
8279;SDS011;8335;42.646;23.380;2022-12-28T10:03:52;16.13;;;8.20;;
8279;SDS011;8335;42.646;23.380;2022-12-28T10:06:23;14.93;;;8.00;;
8279;SDS011;8335;42.646;23.380;2022-12-28T10:08:52;11.60;;;8.03;;
8279;SDS011;8335;42.646;23.380;2022-12-28T10:11:21;15.17;;;8.40;;
8279;SDS011;8335;42.646;23.380;2022-12-28T10:13:53;18.23;;;9.27;;
8279;SDS011;8335;42.646;23.380;2022-12-28T10:16:22;13.97;;;9.23;;
8279;SDS011;8335;42.646;23.380;2022-12-28T10:18:50;13.97;;;8.83;;
8279;SDS011;8335;42.646;23.380;2022-12-28T10:21:19;12.47;;;8.23;;
8279;SDS011;8335;42.646;23.380;2022-12-28T10:23:49;11.43;;;8.10;;
8279;SDS011;8335;42.646;23.380;2022-12-28T10:26:18;13.17;;;8.87;;
8279;SDS011;8335;42.646;23.380;2022-12-28T10:28:46;12.17;;;8.00;;
8279;SDS011;8335;42.646;23.380;2022-12-28T10:31:17;13.77;;;8.60;;
8279;SDS011;8335;42.646;23.380;2022-12-28T10:33:56;10.97;;;7.77;;
8279;SDS011;8335;42.646;23.380;2022-12-28T10:36:25;14.10;;;8.53;;
8279;SDS011;8335;42.646;23.380;2022-12-28T10:38:53;14.90;;;8.20;;
8279;SDS011;8335;42.646;23.380;2022-12-28T10:41:21;15.27;;;8.37;;
8279;SDS011;8335;42.646;23.380;2022-12-28T10:43:59;13.07;;;8.27;;
8279;SDS011;8335;42.646;23.380;2022-12-28T10:46:48;14.37;;;8.93;;
8279;SDS011;8335;42.646;23.380;2022-12-28T10:49:17;12.97;;;9.40;;
8279;SDS011;8335;42.646;23.380;2022-12-28T10:51:57;14.30;;;9.47;;
8279;SDS011;8335;42.646;23.380;2022-12-28T10:54:30;14.67;;;9.87;;
8279;SDS011;8335;42.646;23.380;2022-12-28T10:56:59;16.50;;;9.77;;
8279;SDS011;8335;42.646;23.380;2022-12-28T10:59:26;15.87;;;9.33;;
8279;SDS011;8335;42.646;23.380;2022-12-28T11:01:54;13.40;;;9.50;;
8279;SDS011;8335;42.646;23.380;2022-12-28T11:04:50;16.03;;;9.83;;
8279;SDS011;8335;42.646;23.380;2022-12-28T11:07:25;19.67;;;8.83;;
8279;SDS011;8335;42.646;23.380;2022-12-28T11:09:53;17.20;;;9.90;;
8279;SDS011;8335;42.646;23.380;2022-12-28T11:12:39;14.97;;;10.07;;
8279;SDS011;8335;42.646;23.380;2022-12-28T11:15:08;18.33;;;10.33;;
8279;SDS011;8335;42.646;23.380;2022-12-28T11:17:39;19.67;;;10.90;;
8279;SDS011;8335;42.646;23.380;2022-12-28T11:20:07;17.00;;;10.23;;
8279;SDS011;8335;42.646;23.380;2022-12-28T11:22:40;18.67;;;9.90;;
8279;SDS011;8335;42.646;23.380;2022-12-28T11:25:07;16.40;;;10.00;;
8279;SDS011;8335;42.646;23.380;2022-12-28T11:27:34;16.77;;;10.10;;
8279;SDS011;8335;42.646;23.380;2022-12-28T11:30:02;22.07;;;11.10;;
8279;SDS011;8335;42.646;23.380;2022-12-28T11:32:29;18.97;;;11.27;;
8279;SDS011;8335;42.646;23.380;2022-12-28T11:35:01;20.57;;;12.00;;
8279;SDS011;8335;42.646;23.380;2022-12-28T11:37:28;24.77;;;12.83;;
8279;SDS011;8335;42.646;23.380;2022-12-28T11:39:56;20.93;;;12.13;;
8279;SDS011;8335;42.646;23.380;2022-12-28T11:45:46;17.23;;;10.73;;
8279;SDS011;8335;42.646;23.380;2022-12-28T11:48:43;22.67;;;12.03;;
8279;SDS011;8335;42.646;23.380;2022-12-28T11:51:14;17.77;;;11.50;;
8279;SDS011;8335;42.646;23.380;2022-12-28T11:53:49;19.77;;;12.40;;
8279;SDS011;8335;42.646;23.380;2022-12-28T11:56:18;24.43;;;13.17;;
8279;SDS011;8335;42.646;23.380;2022-12-28T11:58:47;21.00;;;13.10;;
8279;SDS011;8335;42.646;23.380;2022-12-28T12:01:48;19.07;;;12.57;;
8279;SDS011;8335;42.646;23.380;2022-12-28T12:07:15;21.00;;;13.17;;
8279;SDS011;8335;42.646;23.380;2022-12-28T12:09:45;29.80;;;15.20;;
8279;SDS011;8335;42.646;23.380;2022-12-28T12:12:32;22.03;;;14.00;;
8279;SDS011;8335;42.646;23.380;2022-12-28T12:15:11;21.87;;;13.53;;
8279;SDS011;8335;42.646;23.380;2022-12-28T12:17:45;25.60;;;14.20;;
8279;SDS011;8335;42.646;23.380;2022-12-28T12:20:17;21.37;;;13.90;;
8279;SDS011;8335;42.646;23.380;2022-12-28T12:22:51;22.63;;;13.40;;
8279;SDS011;8335;42.646;23.380;2022-12-28T12:25:25;21.30;;;14.47;;
8279;SDS011;8335;42.646;23.380;2022-12-28T12:28:00;22.70;;;14.23;;
8279;SDS011;8335;42.646;23.380;2022-12-28T12:30:32;22.27;;;13.80;;
8279;SDS011;8335;42.646;23.380;2022-12-28T12:33:01;25.13;;;14.17;;
8279;SDS011;8335;42.646;23.380;2022-12-28T12:35:31;23.50;;;13.07;;
8279;SDS011;8335;42.646;23.380;2022-12-28T12:38:09;23.07;;;14.27;;
8279;SDS011;8335;42.646;23.380;2022-12-28T12:40:54;22.47;;;13.10;;
8279;SDS011;8335;42.646;23.380;2022-12-28T12:43:41;20.53;;;12.77;;
8279;SDS011;8335;42.646;23.380;2022-12-28T12:46:32;20.67;;;13.10;;
8279;SDS011;8335;42.646;23.380;2022-12-28T12:49:30;26.50;;;13.63;;
8279;SDS011;8335;42.646;23.380;2022-12-28T12:52:13;18.07;;;12.47;;
8279;SDS011;8335;42.646;23.380;2022-12-28T12:54:52;20.37;;;13.60;;
8279;SDS011;8335;42.646;23.380;2022-12-28T12:57:29;23.70;;;12.93;;
8279;SDS011;8335;42.646;23.380;2022-12-28T13:00:03;23.53;;;12.63;;
8279;SDS011;8335;42.646;23.380;2022-12-28T13:02:52;20.87;;;12.93;;
8279;SDS011;8335;42.646;23.380;2022-12-28T13:05:35;18.20;;;12.67;;
8279;SDS011;8335;42.646;23.380;2022-12-28T13:08:04;22.50;;;13.93;;
8279;SDS011;8335;42.646;23.380;2022-12-28T13:10:32;20.77;;;12.57;;
8279;SDS011;8335;42.646;23.380;2022-12-28T13:13:02;21.33;;;12.90;;
8279;SDS011;8335;42.646;23.380;2022-12-28T13:15:30;21.47;;;13.53;;
8279;SDS011;8335;42.646;23.380;2022-12-28T13:17:58;22.30;;;13.03;;
8279;SDS011;8335;42.646;23.380;2022-12-28T13:20:25;22.30;;;13.30;;
8279;SDS011;8335;42.646;23.380;2022-12-28T13:22:54;19.60;;;13.03;;
8279;SDS011;8335;42.646;23.380;2022-12-28T13:25:24;24.57;;;13.67;;
8279;SDS011;8335;42.646;23.380;2022-12-28T13:27:52;23.80;;;13.30;;
8279;SDS011;8335;42.646;23.380;2022-12-28T13:30:20;18.90;;;12.57;;
8279;SDS011;8335;42.646;23.380;2022-12-28T13:32:49;20.83;;;12.87;;
8279;SDS011;8335;42.646;23.380;2022-12-28T13:35:17;22.03;;;11.93;;
8279;SDS011;8335;42.646;23.380;2022-12-28T13:37:58;25.40;;;13.30;;
8279;SDS011;8335;42.646;23.380;2022-12-28T13:40:28;23.30;;;13.13;;
8279;SDS011;8335;42.646;23.380;2022-12-28T13:43:00;22.53;;;12.90;;
8279;SDS011;8335;42.646;23.380;2022-12-28T13:45:38;20.77;;;12.57;;
8279;SDS011;8335;42.646;23.380;2022-12-28T13:48:06;20.23;;;12.80;;
8279;SDS011;8335;42.646;23.380;2022-12-28T13:50:33;21.00;;;13.07;;
8279;SDS011;8335;42.646;23.380;2022-12-28T13:53:07;21.53;;;13.37;;
8279;SDS011;8335;42.646;23.380;2022-12-28T13:55:38;20.73;;;13.00;;
8279;SDS011;8335;42.646;23.380;2022-12-28T13:58:07;19.93;;;12.93;;
8279;SDS011;8335;42.646;23.380;2022-12-28T14:00:37;20.83;;;13.33;;
8279;SDS011;8335;42.646;23.380;2022-12-28T14:03:09;23.20;;;13.27;;
8279;SDS011;8335;42.646;23.380;2022-12-28T14:05:40;24.80;;;13.63;;
8279;SDS011;8335;42.646;23.380;2022-12-28T14:08:10;22.30;;;12.80;;
8279;SDS011;8335;42.646;23.380;2022-12-28T14:10:37;21.10;;;13.57;;
8279;SDS011;8335;42.646;23.380;2022-12-28T14:13:04;25.73;;;13.57;;
8279;SDS011;8335;42.646;23.380;2022-12-28T14:15:32;21.23;;;13.07;;
8279;SDS011;8335;42.646;23.380;2022-12-28T14:18:00;23.20;;;13.33;;
8279;SDS011;8335;42.646;23.380;2022-12-28T14:20:27;22.17;;;13.73;;
8279;SDS011;8335;42.646;23.380;2022-12-28T14:22:54;20.70;;;13.17;;
8279;SDS011;8335;42.646;23.380;2022-12-28T14:25:46;21.10;;;13.30;;
8279;SDS011;8335;42.646;23.380;2022-12-28T14:28:16;21.70;;;13.93;;
8279;SDS011;8335;42.646;23.380;2022-12-28T14:30:49;25.97;;;13.50;;
8279;SDS011;8335;42.646;23.380;2022-12-28T14:33:18;27.10;;;14.70;;
8279;SDS011;8335;42.646;23.380;2022-12-28T14:35:47;26.20;;;14.63;;
8279;SDS011;8335;42.646;23.380;2022-12-28T14:38:18;22.33;;;14.23;;
8279;SDS011;8335;42.646;23.380;2022-12-28T14:40:51;28.50;;;14.13;;
8279;SDS011;8335;42.646;23.380;2022-12-28T14:43:21;20.03;;;12.93;;
8279;SDS011;8335;42.646;23.380;2022-12-28T14:45:49;20.90;;;13.13;;
8279;SDS011;8335;42.646;23.380;2022-12-28T14:48:20;19.47;;;13.00;;
8279;SDS011;8335;42.646;23.380;2022-12-28T14:50:55;19.30;;;12.70;;
8279;SDS011;8335;42.646;23.380;2022-12-28T14:53:25;20.00;;;12.60;;
8279;SDS011;8335;42.646;23.380;2022-12-28T14:55:54;21.67;;;12.13;;
8279;SDS011;8335;42.646;23.380;2022-12-28T14:58:24;22.03;;;12.73;;
8279;SDS011;8335;42.646;23.380;2022-12-28T15:00:55;19.33;;;11.50;;
8279;SDS011;8335;42.646;23.380;2022-12-28T15:03:23;17.97;;;12.17;;
8279;SDS011;8335;42.646;23.380;2022-12-28T15:05:53;20.33;;;12.57;;
8279;SDS011;8335;42.646;23.380;2022-12-28T15:08:22;20.70;;;13.00;;
8279;SDS011;8335;42.646;23.380;2022-12-28T15:10:51;20.97;;;12.10;;
8279;SDS011;8335;42.646;23.380;2022-12-28T15:13:20;20.07;;;12.53;;